createdAt,value
2019-03-06T00:01:26.780Z,79.19
2019-03-06T00:03:57.343Z,78.76
2019-03-06T00:06:27.745Z,78.70
2019-03-06T00:08:59.716Z,78.69
2019-03-06T00:11:30.511Z,78.78
2019-03-06T00:14:02.190Z,78.77
2019-03-06T00:16:32.721Z,78.77
2019-03-06T00:19:03.127Z,78.88
2019-03-06T00:21:34.682Z,78.33
2019-03-06T00:24:05.143Z,77.82
2019-03-06T00:26:35.679Z,77.89
2019-03-06T00:29:06.310Z,78.17
2019-03-06T00:31:37.032Z,78.88
2019-03-06T00:34:07.734Z,78.32
2019-03-06T00:36:38.290Z,77.99
2019-03-06T00:39:08.793Z,78.67
2019-03-06T00:41:40.062Z,78.91
2019-03-06T00:44:10.581Z,78.36
2019-03-06T00:46:41.075Z,78.43
2019-03-06T00:49:14.385Z,78.67
2019-03-06T00:51:44.839Z,78.98
2019-03-06T00:54:15.410Z,79.55
2019-03-06T00:56:45.855Z,79.26
2019-03-06T00:59:16.324Z,79.68
2019-03-06T01:01:46.885Z,80.83
2019-03-06T01:04:17.373Z,80.67
2019-03-06T01:06:47.803Z,80.50
2019-03-06T01:09:18.240Z,80.82
2019-03-06T01:11:48.698Z,80.40
2019-03-06T01:14:19.162Z,80.49
2019-03-06T01:16:49.616Z,79.95
2019-03-06T01:22:31.119Z,79.63
2019-03-06T01:25:01.734Z,79.61
2019-03-06T01:27:32.201Z,80.06
2019-03-06T01:30:02.643Z,79.60
2019-03-06T01:32:33.224Z,79.45
2019-03-06T01:35:05.303Z,79.13
2019-03-06T01:37:37.264Z,78.78
2019-03-06T01:40:28.862Z,78.88
2019-03-06T01:43:09.910Z,78.72
2019-03-06T01:45:40.343Z,78.57
2019-03-06T01:48:16.762Z,78.91
2019-03-06T01:51:08.221Z,79.12
2019-03-06T01:53:40.267Z,78.99
2019-03-06T01:56:12.491Z,79.34
2019-03-06T01:58:44.171Z,79.38
2019-03-06T02:01:29.921Z,79.61
2019-03-06T02:04:01.995Z,80.02
2019-03-06T02:06:32.420Z,79.84
2019-03-06T02:09:03.190Z,79.50
2019-03-06T02:12:05.511Z,79.13
2019-03-06T02:14:37.817Z,79.17
2019-03-06T02:19:55.331Z,78.98
2019-03-06T02:22:27.410Z,79.22
2019-03-06T02:24:57.869Z,79.04
2019-03-06T02:27:30.023Z,79.21
2019-03-06T02:30:00.661Z,78.92
2019-03-06T02:32:32.719Z,78.85
2019-03-06T02:35:04.340Z,78.25
2019-03-06T02:37:36.348Z,78.09
2019-03-06T02:40:09.542Z,78.09
2019-03-06T02:42:39.995Z,77.92
2019-03-06T02:45:13.394Z,77.87
2019-03-06T02:47:43.919Z,77.76
2019-03-06T02:50:16.572Z,77.72
2019-03-06T02:52:47.089Z,77.58
2019-03-06T02:55:18.251Z,77.70
2019-03-06T02:57:59.413Z,77.58
2019-03-06T03:00:34.469Z,77.57
2019-03-06T03:03:23.299Z,77.52
2019-03-06T03:06:01.448Z,77.46
2019-03-06T03:08:32.153Z,78.22
2019-03-06T03:11:02.652Z,78.85
2019-03-06T03:13:33.075Z,79.36
2019-03-06T03:16:06.293Z,80.01
2019-03-06T03:18:36.693Z,80.27
2019-03-06T03:21:07.148Z,80.56
2019-03-06T03:23:37.565Z,80.33
2019-03-06T03:26:08.093Z,80.85
2019-03-06T03:28:41.208Z,81.17
2019-03-06T03:31:13.532Z,80.72
2019-03-06T03:33:43.988Z,80.65
2019-03-06T03:36:14.459Z,80.75
2019-03-06T03:38:44.906Z,80.67
2019-03-06T03:41:20.006Z,81.16
2019-03-06T03:43:50.541Z,80.71
2019-03-06T03:46:24.349Z,81.42
2019-03-06T03:48:59.284Z,81.22
2019-03-06T03:51:29.782Z,81.86
2019-03-06T03:54:00.399Z,81.27
2019-03-06T03:56:32.507Z,80.94
2019-03-06T03:59:03.034Z,80.81
2019-03-06T04:01:33.859Z,81.02
2019-03-06T04:04:06.680Z,81.00
2019-03-06T04:06:37.375Z,81.66
2019-03-06T04:09:13.077Z,81.09
2019-03-06T04:11:46.899Z,81.25
2019-03-06T04:14:20.070Z,81.76
2019-03-06T04:16:55.296Z,82.18
2019-03-06T04:20:02.486Z,81.68
2019-03-06T04:22:39.547Z,81.56
2019-03-06T04:25:28.046Z,81.20
2019-03-06T04:27:58.610Z,80.90
2019-03-06T04:30:32.176Z,79.64
2019-03-06T04:33:02.711Z,79.04
2019-03-06T04:35:34.312Z,79.62
2019-03-06T04:38:17.756Z,79.57
2019-03-06T04:40:52.403Z,80.07
2019-03-06T04:43:26.431Z,80.59
2019-03-06T04:46:01.456Z,80.13
2019-03-06T04:48:42.459Z,80.79
2019-03-06T04:51:17.829Z,80.21
2019-03-06T04:53:51.118Z,79.81
2019-03-06T04:56:21.327Z,80.01
2019-03-06T04:59:08.283Z,79.68
2019-03-06T05:01:50.902Z,79.88
2019-03-06T05:04:23.004Z,79.88
2019-03-06T05:10:17.408Z,79.61
2019-03-06T05:12:47.961Z,79.65
2019-03-06T05:15:20.163Z,78.65
2019-03-06T05:18:14.217Z,78.25
2019-03-06T05:20:45.392Z,77.90
2019-03-06T05:23:18.387Z,77.58
2019-03-06T05:25:50.068Z,77.77
2019-03-06T05:28:20.707Z,77.71
2019-03-06T05:30:55.637Z,77.64
2019-03-06T05:33:28.651Z,77.08
2019-03-06T05:36:04.748Z,76.92
2019-03-06T05:38:48.326Z,76.44
2019-03-06T05:41:20.614Z,76.07
2019-03-06T05:43:51.185Z,75.80
2019-03-06T05:46:24.891Z,75.45
2019-03-06T05:48:58.389Z,75.39
2019-03-06T05:51:30.610Z,75.22
2019-03-06T05:54:01.247Z,74.29
2019-03-06T05:56:35.048Z,73.87
2019-03-06T05:59:08.500Z,73.35
2019-03-06T06:01:39.143Z,72.53
2019-03-06T06:04:18.033Z,72.31
2019-03-06T06:06:48.692Z,71.72
2019-03-06T06:09:29.153Z,71.06
2019-03-06T06:11:59.720Z,70.74
2019-03-06T06:14:31.680Z,70.22
2019-03-06T06:17:04.372Z,69.23
2019-03-06T06:19:36.033Z,68.76
2019-03-06T06:22:08.135Z,67.56
2019-03-06T06:24:43.536Z,67.41
2019-03-06T06:27:15.849Z,67.12
2019-03-06T06:29:54.072Z,67.02
2019-03-06T06:32:30.527Z,66.72
2019-03-06T06:35:08.920Z,66.70
2019-03-06T06:37:39.724Z,65.65
2019-03-06T06:40:17.294Z,66.08
2019-03-06T06:42:47.736Z,66.05
2019-03-06T06:45:37.260Z,65.08
2019-03-06T06:48:12.902Z,64.90
2019-03-06T06:51:01.194Z,64.86
2019-03-06T06:53:36.337Z,64.48
2019-03-06T06:56:30.933Z,64.91
2019-03-06T06:59:09.454Z,64.95
2019-03-06T07:01:54.605Z,64.78
2019-03-06T07:04:55.404Z,64.67
2019-03-06T07:07:46.746Z,64.11
2019-03-06T07:10:35.449Z,63.79
2019-03-06T07:13:07.685Z,63.68
2019-03-06T07:15:46.354Z,63.34
2019-03-06T07:18:36.823Z,63.54
2019-03-06T07:21:16.461Z,63.31
2019-03-06T07:24:00.814Z,62.98
2019-03-06T07:26:52.383Z,62.24
2019-03-06T07:29:24.414Z,61.83
2019-03-06T07:31:56.480Z,61.79
2019-03-06T07:34:37.411Z,61.71
2019-03-06T07:37:37.025Z,61.67
2019-03-06T07:40:28.044Z,61.51
2019-03-06T07:43:00.227Z,61.37
2019-03-06T07:45:39.753Z,60.57
2019-03-06T07:48:20.171Z,60.93
2019-03-06T07:50:55.344Z,60.51
2019-03-06T07:54:16.505Z,60.38
2019-03-06T07:56:48.683Z,59.61
2019-03-06T07:59:25.208Z,58.11
2019-03-06T08:02:09.963Z,58.63
2019-03-06T08:04:43.000Z,57.94
2019-03-06T08:07:16.345Z,58.04
2019-03-06T08:10:01.217Z,58.01
2019-03-06T08:13:11.692Z,58.04
2019-03-06T08:15:48.240Z,57.61
2019-03-06T08:18:39.565Z,57.85
2019-03-06T08:21:31.047Z,57.41
2019-03-06T08:24:19.087Z,57.36
2019-03-06T08:27:19.933Z,57.26
2019-03-06T08:29:54.947Z,56.80
2019-03-06T08:32:34.053Z,57.73
2019-03-06T08:35:09.090Z,57.61
2019-03-06T08:37:48.753Z,57.27
2019-03-06T08:40:20.921Z,56.46
2019-03-06T08:43:40.816Z,56.79
2019-03-06T08:45:42.327Z,56.27
2019-03-06T08:48:33.477Z,56.61
2019-03-06T08:51:13.173Z,56.30
2019-03-06T08:54:05.205Z,55.55
2019-03-06T08:57:08.232Z,56.28
2019-03-06T09:00:07.413Z,56.38
2019-03-06T09:03:03.170Z,56.02
2019-03-06T09:06:00.436Z,55.67
2019-03-06T09:08:44.499Z,55.76
2019-03-06T09:11:22.686Z,55.83
2019-03-06T09:14:12.826Z,55.21
2019-03-06T09:17:00.996Z,55.65
2019-03-06T09:19:44.036Z,54.01
2019-03-06T09:22:27.972Z,54.64
2019-03-06T09:25:41.795Z,52.96
2019-03-06T09:28:33.852Z,51.62
2019-03-06T09:31:29.895Z,50.17
2019-03-06T09:34:22.388Z,50.52
2019-03-06T09:37:12.181Z,47.46
2019-03-06T09:39:58.923Z,49.78
2019-03-06T09:45:52.435Z,46.49
2019-03-06T09:48:43.800Z,47.19
2019-03-06T09:55:30.653Z,46.28
2019-03-06T09:58:22.796Z,44.62
2019-03-06T10:01:33.722Z,43.89
2019-03-06T10:04:36.960Z,42.88
2019-03-06T10:07:20.361Z,44.08
2019-03-06T10:13:19.714Z,44.57
2019-03-06T10:16:04.995Z,42.71
2019-03-06T10:18:41.701Z,42.69
2019-03-06T10:21:32.825Z,40.78
2019-03-06T10:24:10.178Z,41.38
2019-03-06T10:26:45.696Z,42.03
2019-03-06T10:39:17.225Z,40.22
2019-03-06T10:45:13.117Z,40.61
2019-03-06T10:51:40.039Z,40.52
2019-03-06T10:55:31.583Z,38.68
2019-03-06T10:57:36.348Z,39.32
2019-03-06T11:05:01.446Z,39.58
2019-03-06T11:07:26.821Z,40.34
2019-03-06T11:10:23.694Z,41.34
2019-03-06T11:13:22.077Z,41.19
2019-03-06T11:16:07.494Z,40.69
2019-03-06T11:24:53.373Z,38.08
2019-03-06T11:27:48.045Z,37.85
2019-03-06T11:30:44.243Z,37.08
2019-03-06T11:36:30.966Z,37.74
2019-03-06T11:39:24.739Z,37.23
2019-03-06T11:42:07.046Z,36.43
2019-03-06T11:44:46.792Z,36.03
2019-03-06T11:50:29.392Z,35.69
2019-03-06T11:52:59.894Z,35.71
2019-03-06T11:55:30.730Z,36.10
2019-03-06T11:58:01.265Z,35.88
2019-03-06T12:03:39.644Z,36.56
2019-03-06T12:06:22.245Z,36.11
2019-03-06T12:09:02.068Z,36.01
2019-03-06T12:11:34.465Z,36.37
2019-03-06T12:14:22.311Z,36.54
2019-03-06T12:17:12.846Z,37.05
2019-03-06T13:27:16.171Z,40.02
2019-03-06T13:33:11.376Z,40.76
2019-03-06T13:50:06.352Z,41.24
2019-03-06T13:57:20.993Z,41.68
2019-03-06T14:05:11.940Z,42.68
2019-03-06T14:08:31.522Z,43.14
2019-03-06T14:14:39.795Z,43.49
2019-03-06T14:20:52.363Z,44.00
2019-03-06T14:26:39.471Z,43.99
2019-03-06T14:29:21.963Z,44.57
2019-03-06T14:32:01.397Z,44.82
2019-03-06T14:34:54.890Z,44.52
2019-03-06T14:37:44.563Z,44.71
2019-03-06T14:44:11.822Z,44.85
2019-03-06T14:47:04.949Z,45.12
2019-03-06T15:13:17.840Z,47.45
2019-03-06T15:15:59.323Z,47.97
2019-03-06T15:24:47.180Z,48.61
2019-03-06T15:27:28.668Z,48.94
2019-03-06T15:33:24.824Z,49.22
2019-03-06T15:36:38.658Z,49.49
2019-03-06T15:39:55.341Z,50.04
2019-03-06T15:42:33.483Z,49.75
2019-03-06T15:48:24.476Z,50.50
2019-03-06T15:51:02.949Z,50.73
2019-03-06T15:53:57.336Z,50.58
2019-03-06T16:48:16.918Z,51.73
2019-03-06T16:51:28.222Z,51.87
2019-03-06T20:31:02.564Z,67.57
2019-03-06T20:33:57.777Z,67.91
2019-03-06T20:46:59.825Z,69.36
2019-03-06T20:50:38.457Z,69.91
2019-03-06T20:52:37.506Z,70.34
2019-03-06T20:55:26.523Z,70.80
2019-03-06T21:04:49.208Z,72.44
2019-03-06T21:17:57.071Z,74.40
2019-03-06T21:30:21.393Z,74.85
2019-03-06T21:39:06.493Z,74.17
2019-03-06T21:44:50.227Z,74.17
2019-03-06T21:48:17.316Z,73.86
2019-03-06T21:50:38.890Z,73.36
2019-03-06T21:53:11.719Z,73.35
2019-03-06T21:55:53.174Z,73.21
2019-03-06T21:58:37.491Z,72.65
2019-03-06T22:07:41.013Z,73.31
2019-03-06T22:16:41.475Z,72.20
2019-03-06T22:22:21.128Z,70.68
2019-03-06T22:28:04.697Z,69.84
2019-03-06T22:30:40.807Z,69.77
2019-03-06T22:33:25.121Z,70.21
2019-03-06T22:38:54.482Z,69.15
2019-03-06T22:44:46.192Z,68.43
2019-03-06T22:47:39.410Z,67.97
2019-03-06T22:50:06.090Z,67.66
2019-03-06T22:52:46.004Z,68.11
2019-03-06T22:55:25.570Z,68.16
2019-03-06T23:01:17.696Z,68.09
2019-03-06T23:03:51.333Z,68.78
2019-03-06T23:06:30.435Z,69.03
2019-03-06T23:15:12.012Z,68.74
2019-03-06T23:17:45.763Z,68.88
2019-03-06T23:20:18.427Z,69.29
2019-03-06T23:23:01.057Z,69.74
2019-03-06T23:25:38.810Z,70.36
2019-03-06T23:28:31.435Z,70.45
2019-03-06T23:31:07.338Z,70.66
2019-03-06T23:33:55.090Z,69.87
2019-03-06T23:36:36.984Z,70.25
2019-03-06T23:42:18.110Z,70.47
2019-03-06T23:44:58.191Z,70.79
2019-03-06T23:47:38.818Z,70.82
2019-03-06T23:50:19.056Z,70.46
2019-03-06T23:53:18.750Z,70.73
2019-03-06T23:55:51.767Z,71.06
2019-03-06T23:58:27.814Z,71.16
